Weser, Texas
Current Conditions -  °F | °C
As of 8:55 AM on Sunday 23 Nov 2014 (Local Time) from KBEA Reporting Station
Clear Clear  
Wind Chill: 62°   Ceiling: Unl
Heat Index: 62°   Visibility: 10mi
Dew Point: 56°   Wind: 8mph
Humidity: 81%   Direction: 240°WSW
Pressure: 29.74"   Gusts: NA
Location:  28.6563°N, 97.4287°W
Report Text: KBEA 231455Z AUTO 24007KT 10SM CLR 17/14 A2974 RMK AO2 T01680136
Loading
Personal Weather Stations






























Interactive Weather Map New forecast layout! Learn more

10-Day Weather Forecast

Advertisements
Track Severe Weather on mobile